Time;durP1;ratioP1;P1;durP2;ratioP2;P2;SDS_P1;SDS_P2;PMS_P1;PMS_P2;Temp;Humidity;BMP_temperature;BMP_pressure;BME280_temperature;BME280_humidity;BME280_pressure;Samples;Min_cycle;Max_cycle;Signal;HPM_P1;HPM_P2
2021/01/10 00:00:43;;;;;;;25.38;8.52;;;-0.20;99.90;;;;;;5060877;28;20107;-74
2021/01/10 00:03:09;;;;;;;19.80;8.85;;;-0.30;99.90;;;;;;5073963;28;20035;-74
2021/01/10 00:05:37;;;;;;;22.20;9.07;;;-0.30;99.90;;;;;;5054694;28;20025;-74
2021/01/10 00:08:04;;;;;;;20.20;8.05;;;-0.40;99.90;;;;;;5053754;28;20025;-74
2021/01/10 00:10:30;;;;;;;16.60;7.53;;;-0.40;99.90;;;;;;5055057;28;20017;-74
2021/01/10 00:12:57;;;;;;;18.58;6.97;;;-0.40;99.90;;;;;;5053686;28;20028;-74
2021/01/10 00:15:23;;;;;;;16.27;7.47;;;-0.50;99.90;;;;;;5053499;28;20389;-74
2021/01/10 00:17:49;;;;;;;21.30;7.72;;;-0.50;99.90;;;;;;5035566;28;20017;-74
2021/01/10 00:20:17;;;;;;;21.20;8.15;;;-0.60;99.90;;;;;;5053289;28;20096;-75
2021/01/10 00:22:43;;;;;;;17.42;7.82;;;-0.60;99.90;;;;;;5051933;28;20035;-74
2021/01/10 00:25:10;;;;;;;19.73;7.88;;;-0.70;99.90;;;;;;5060358;28;20111;-75
2021/01/10 00:27:37;;;;;;;18.95;7.35;;;-0.70;99.90;;;;;;5072976;28;20099;-75
2021/01/10 00:30:46;;;;;;;20.55;7.40;;;-0.70;99.90;;;;;;5054904;28;20112;-75
2021/01/10 00:33:11;;;;;;;18.60;6.68;;;-0.70;99.90;;;;;;5073629;28;20385;-74
2021/01/10 00:35:37;;;;;;;18.60;7.95;;;-0.80;99.90;;;;;;5048759;28;20017;-74
2021/01/10 00:38:03;;;;;;;20.80;7.65;;;-0.70;99.90;;;;;;5053965;28;20051;-75
2021/01/10 00:40:28;;;;;;;14.77;6.72;;;-0.70;99.90;;;;;;5056545;28;20017;-75
2021/01/10 00:42:54;;;;;;;16.45;7.45;;;-0.70;99.90;;;;;;5057908;28;20530;-74
2021/01/10 00:45:20;;;;;;;18.80;7.43;;;-0.70;99.90;;;;;;5057223;28;20024;-74
2021/01/10 00:47:46;;;;;;;18.75;5.90;;;-0.60;99.90;;;;;;5056812;28;20417;-74
2021/01/10 00:50:12;;;;;;;18.02;7.35;;;-0.60;99.90;;;;;;5040213;28;20104;-75
2021/01/10 00:52:37;;;;;;;16.55;6.13;;;-0.70;99.90;;;;;;5057923;28;20086;-74
2021/01/10 00:55:04;;;;;;;16.45;6.20;;;-0.70;99.90;;;;;;5057771;28;21174;-75
2021/01/10 00:57:30;;;;;;;16.20;6.70;;;-0.70;99.90;;;;;;5057396;28;20020;-74
2021/01/10 00:59:56;;;;;;;15.43;5.50;;;-0.80;99.90;;;;;;5076805;28;20032;-74
2021/01/10 01:02:21;;;;;;;14.57;6.35;;;-0.80;99.90;;;;;;5058810;28;20540;-74
2021/01/10 01:04:47;;;;;;;12.75;5.05;;;-0.80;99.90;;;;;;5076690;28;20499;-74
2021/01/10 01:07:13;;;;;;;15.23;5.57;;;-0.90;99.90;;;;;;5059383;28;20396;-74
2021/01/10 01:09:39;;;;;;;16.40;6.43;;;-0.80;99.90;;;;;;5077123;28;20025;-74
2021/01/10 01:12:05;;;;;;;14.13;6.13;;;-0.90;99.90;;;;;;5077325;28;20028;-74
2021/01/10 01:14:32;;;;;;;14.05;6.18;;;-0.80;99.90;;;;;;5058775;28;20024;-74
2021/01/10 01:16:57;;;;;;;14.60;6.38;;;-0.80;99.90;;;;;;5077152;28;20028;-74
2021/01/10 01:19:23;;;;;;;11.27;5.28;;;-0.80;99.90;;;;;;5076979;28;20032;-74
2021/01/10 01:21:52;;;;;;;12.43;5.38;;;-0.90;99.90;;;;;;5059332;28;20052;-74
2021/01/10 01:24:21;;;;;;;19.00;5.70;;;-0.80;99.90;;;;;;5076872;28;20025;-74
2021/01/10 01:26:46;;;;;;;12.05;4.95;;;-0.90;99.90;;;;;;5077181;28;20032;-74
2021/01/10 01:29:12;;;;;;;12.43;6.28;;;-0.90;99.90;;;;;;5076931;28;20021;-74
2021/01/10 01:31:38;;;;;;;14.68;5.70;;;-0.90;99.90;;;;;;5076765;28;20362;-74
2021/01/10 01:34:03;;;;;;;11.90;5.32;;;-0.90;99.90;;;;;;5077393;28;20028;-74
2021/01/10 01:36:32;;;;;;;13.57;6.25;;;-0.70;99.90;;;;;;5058363;28;20052;-74
2021/01/10 01:38:59;;;;;;;21.52;6.47;;;-0.70;99.90;;;;;;5076464;28;20029;-75
2021/01/10 01:41:26;;;;;;;14.93;5.45;;;-0.60;99.90;;;;;;5076227;28;20389;-74
2021/01/10 01:43:51;;;;;;;14.70;5.43;;;-0.60;99.90;;;;;;5076337;28;20111;-75
2021/01/10 01:46:32;;;;;;;19.67;6.20;;;-0.50;99.90;;;;;;5057996;28;20625;-75
2021/01/10 01:49:05;;;;;;;17.40;6.50;;;-0.40;99.90;;;;;;5057829;28;20059;-74
2021/01/10 01:51:31;;;;;;;15.57;5.82;;;-0.40;99.90;;;;;;5076562;28;20345;-74
2021/01/10 01:53:59;;;;;;;18.58;5.90;;;-0.30;99.90;;;;;;5075614;28;20057;-74
2021/01/10 01:56:24;;;;;;;11.43;4.75;;;-0.20;99.90;;;;;;5057991;28;20025;-74
2021/01/10 01:58:57;;;;;;;13.27;4.93;;;-0.10;99.90;;;;;;5075729;28;20029;-74
2021/01/10 02:01:26;;;;;;;11.98;4.93;;;-0.10;99.90;;;;;;5075726;28;20389;-74
2021/01/10 02:04:11;;;;;;;16.95;5.72;;;0.00;99.90;;;;;;5076011;28;20025;-74
2021/01/10 02:06:43;;;;;;;17.02;4.82;;;0.00;99.90;;;;;;5057775;28;20485;-74
2021/01/10 02:09:10;;;;;;;13.20;4.50;;;-0.10;99.90;;;;;;5075634;28;20532;-74
2021/01/10 02:11:38;;;;;;;12.40;4.88;;;0.00;99.90;;;;;;5075419;28;20016;-75
2021/01/10 02:14:10;;;;;;;17.20;4.65;;;0.40;99.90;;;;;;5075674;28;20154;-74
2021/01/10 02:16:37;;;;;;;15.02;4.82;;;-0.10;99.90;;;;;;5075123;28;20021;-74
2021/01/10 02:19:08;;;;;;;13.73;5.32;;;-0.20;99.90;;;;;;5075246;28;20106;-74
2021/01/10 02:21:35;;;;;;;16.52;5.63;;;-0.20;99.90;;;;;;5057270;28;20032;-74
2021/01/10 02:24:04;;;;;;;9.00;4.78;;;-0.20;99.90;;;;;;5057181;28;20107;-74
2021/01/10 02:26:29;;;;;;;11.93;5.15;;;-0.20;99.90;;;;;;5061071;28;20386;-75
2021/01/10 02:28:56;;;;;;;11.93;4.45;;;-0.30;99.90;;;;;;5037206;28;20032;-75
2021/01/10 02:31:24;;;;;;;17.73;5.22;;;-0.30;99.90;;;;;;5056261;28;20025;-75
2021/01/10 02:33:54;;;;;;;11.07;4.80;;;-0.30;99.90;;;;;;5055183;28;20021;-75
2021/01/10 02:37:16;;;;;;;12.20;4.82;;;-0.40;99.90;;;;;;5055401;28;20104;-75
2021/01/10 02:40:09;;;;;;;15.52;4.85;;;-0.40;99.90;;;;;;4974182;28;20122;-75
2021/01/10 02:42:47;;;;;;;10.30;5.25;;;-0.40;99.90;;;;;;5052471;28;20064;-75
2021/01/10 02:45:18;;;;;;;8.97;4.13;;;-0.40;99.90;;;;;;5057770;28;20078;-75
2021/01/10 02:47:44;;;;;;;10.07;3.88;;;-0.50;99.90;;;;;;5074922;28;20267;-74
2021/01/10 02:50:10;;;;;;;10.88;4.47;;;-0.50;99.90;;;;;;5045280;28;20477;-74
2021/01/10 02:52:36;;;;;;;11.73;4.65;;;-0.60;99.90;;;;;;5056832;28;20025;-74
2021/01/10 02:55:02;;;;;;;15.32;4.78;;;-0.70;99.90;;;;;;5056240;28;20020;-75
2021/01/10 02:57:35;;;;;;;12.25;5.07;;;-0.70;99.90;;;;;;5074674;28;20024;-75
2021/01/10 03:00:03;;;;;;;11.00;5.22;;;-0.70;99.90;;;;;;5073458;28;20481;-75
2021/01/10 03:02:29;;;;;;;14.13;4.82;;;-0.70;99.90;;;;;;5052486;28;20078;-75
2021/01/10 03:04:55;;;;;;;13.18;4.43;;;-0.80;99.90;;;;;;5074139;28;20376;-75
2021/01/10 03:07:21;;;;;;;8.80;3.88;;;-0.80;99.90;;;;;;5073197;28;20033;-75
2021/01/10 03:09:47;;;;;;;9.20;3.70;;;-0.80;99.90;;;;;;5074277;28;20056;-75
2021/01/10 03:12:24;;;;;;;15.73;4.60;;;-0.80;99.90;;;;;;5073834;28;20029;-75
2021/01/10 03:14:51;;;;;;;12.23;4.60;;;-0.70;99.90;;;;;;5054857;28;20021;-75
2021/01/10 03:17:40;;;;;;;12.82;4.25;;;-0.80;99.90;;;;;;5074243;28;20074;-75
2021/01/10 03:20:10;;;;;;;10.18;4.18;;;-0.80;99.90;;;;;;5074770;28;20469;-74
2021/01/10 03:22:36;;;;;;;11.85;3.95;;;-0.80;99.90;;;;;;5056090;28;20032;-75
2021/01/10 03:25:04;;;;;;;12.50;3.97;;;-0.70;99.90;;;;;;5056059;28;20024;-74
2021/01/10 03:27:30;;;;;;;13.25;3.88;;;-0.70;99.90;;;;;;5073970;28;20086;-75
2021/01/10 03:29:56;;;;;;;11.77;3.60;;;-0.60;99.90;;;;;;5074298;28;20016;-75
2021/01/10 03:32:22;;;;;;;9.90;3.83;;;-0.50;99.90;;;;;;5074438;28;20032;-74
2021/01/10 03:34:47;;;;;;;9.63;4.03;;;-0.60;99.90;;;;;;5074234;28;20095;-74
2021/01/10 03:37:13;;;;;;;11.15;4.20;;;-0.50;99.90;;;;;;5074558;28;20026;-75
2021/01/10 03:39:38;;;;;;;8.10;3.53;;;-0.50;99.90;;;;;;5073978;28;20051;-74
2021/01/10 03:42:04;;;;;;;13.65;4.10;;;-0.50;99.90;;;;;;5073814;28;20488;-74
2021/01/10 03:44:30;;;;;;;12.73;4.22;;;-0.50;99.90;;;;;;5074269;28;20028;-74
2021/01/10 03:46:55;;;;;;;11.25;3.60;;;-0.50;99.90;;;;;;5073679;28;20025;-74
2021/01/10 03:49:21;;;;;;;8.70;3.65;;;-0.40;99.90;;;;;;5073795;28;20029;-74
2021/01/10 03:51:47;;;;;;;9.73;3.60;;;-0.40;99.90;;;;;;5055850;28;20032;-74
2021/01/10 03:54:12;;;;;;;8.30;3.55;;;-0.40;99.90;;;;;;5074192;28;20365;-74
2021/01/10 03:56:38;;;;;;;17.90;5.32;;;-0.40;99.90;;;;;;5055782;28;20026;-74
2021/01/10 03:59:03;;;;;;;8.80;3.33;;;-0.40;99.90;;;;;;5055921;28;20025;-74
2021/01/10 04:01:29;;;;;;;8.07;3.05;;;-0.40;99.90;;;;;;5055916;28;20028;-74
2021/01/10 04:03:54;;;;;;;14.45;4.50;;;-0.40;99.90;;;;;;5070366;28;20543;-75
2021/01/10 04:06:20;;;;;;;9.25;3.40;;;-0.50;99.90;;;;;;5035599;28;20508;-74
2021/01/10 04:08:46;;;;;;;7.90;3.35;;;-0.50;99.90;;;;;;5035515;28;20029;-75
2021/01/10 04:11:13;;;;;;;8.18;3.58;;;-0.50;99.90;;;;;;5062621;28;20021;-75
2021/01/10 04:13:39;;;;;;;9.70;3.65;;;-0.50;99.90;;;;;;5056057;28;20021;-75
2021/01/10 04:16:05;;;;;;;10.35;3.40;;;-0.40;99.90;;;;;;5059401;28;20028;-75
2021/01/10 04:18:31;;;;;;;7.97;3.25;;;-0.40;99.90;;;;;;5059586;28;20362;-75
2021/01/10 04:20:57;;;;;;;7.03;3.65;;;-0.40;99.90;;;;;;5056183;28;20079;-75
2021/01/10 04:23:22;;;;;;;12.82;4.05;;;-0.40;99.90;;;;;;5077388;28;20028;-75
2021/01/10 04:25:51;;;;;;;8.80;3.70;;;-0.50;99.90;;;;;;5077032;28;20104;-75
2021/01/10 04:28:17;;;;;;;9.45;3.72;;;-0.50;99.90;;;;;;5077500;28;20085;-75
2021/01/10 04:30:42;;;;;;;9.63;3.35;;;-0.50;99.90;;;;;;5055182;28;20025;-74
2021/01/10 04:33:08;;;;;;;10.45;3.50;;;-0.50;99.90;;;;;;5062379;28;20020;-74
2021/01/10 04:35:34;;;;;;;9.93;3.47;;;-0.60;99.90;;;;;;5071358;28;20028;-75
2021/01/10 04:37:59;;;;;;;18.88;4.72;;;-0.60;99.90;;;;;;5039323;28;20500;-74
2021/01/10 04:40:25;;;;;;;10.68;3.97;;;-0.60;99.90;;;;;;5062368;28;20035;-75
2021/01/10 04:42:51;;;;;;;8.80;3.58;;;-0.70;99.90;;;;;;5057379;28;20028;-74
2021/01/10 04:45:18;;;;;;;6.32;3.58;;;-0.70;99.90;;;;;;5039071;28;20112;-75
2021/01/10 04:47:43;;;;;;;7.53;3.53;;;-0.70;99.90;;;;;;5057015;28;20082;-75
2021/01/10 04:50:10;;;;;;;6.07;3.20;;;-0.70;99.90;;;;;;5056788;28;20033;-75
2021/01/10 04:52:38;;;;;;;14.15;4.13;;;-0.80;99.90;;;;;;5038982;28;20032;-75
2021/01/10 04:55:05;;;;;;;9.82;3.38;;;-0.80;99.90;;;;;;5057021;28;20086;-74
2021/01/10 04:57:33;;;;;;;10.45;3.35;;;-0.80;99.90;;;;;;5056984;28;20021;-74
2021/01/10 04:59:59;;;;;;;11.88;4.05;;;-0.80;99.90;;;;;;5038940;28;20018;-74
2021/01/10 05:02:27;;;;;;;9.40;3.78;;;-0.80;99.90;;;;;;5056638;28;20485;-74
2021/01/10 05:04:54;;;;;;;11.02;3.72;;;-0.80;99.90;;;;;;5054085;28;20031;-75
2021/01/10 05:07:20;;;;;;;17.05;4.63;;;-0.90;99.90;;;;;;5056667;28;20390;-74
2021/01/10 05:09:46;;;;;;;7.13;4.00;;;-0.80;99.90;;;;;;5056603;28;20021;-74
2021/01/10 05:12:11;;;;;;;9.13;3.70;;;-0.90;99.90;;;;;;5062322;28;20017;-75
2021/01/10 05:14:37;;;;;;;12.80;3.80;;;-0.90;99.90;;;;;;5075968;28;20033;-75
2021/01/10 05:17:03;;;;;;;13.80;4.15;;;-0.90;99.90;;;;;;5056738;28;20047;-75
2021/01/10 05:19:29;;;;;;;11.32;4.18;;;-0.90;99.90;;;;;;5056974;28;20025;-75
2021/01/10 05:21:55;;;;;;;9.50;4.03;;;-1.00;99.90;;;;;;5073782;28;20362;-75
2021/01/10 05:24:21;;;;;;;11.23;3.90;;;-1.00;99.90;;;;;;5044855;28;20025;-75
2021/01/10 05:26:47;;;;;;;8.90;3.75;;;-1.00;99.90;;;;;;5055532;28;20031;-75
2021/01/10 05:29:13;;;;;;;8.43;3.38;;;-1.00;99.90;;;;;;5038507;28;20024;-74
2021/01/10 05:31:42;;;;;;;11.43;4.68;;;-0.90;99.90;;;;;;5056052;28;20053;-74
2021/01/10 05:34:08;;;;;;;6.38;3.45;;;-0.90;99.90;;;;;;5059079;28;20025;-74
2021/01/10 05:36:36;;;;;;;9.63;3.40;;;-0.90;99.90;;;;;;5056557;28;20017;-75
2021/01/10 05:39:28;;;;;;;12.55;4.25;;;-0.90;99.90;;;;;;5056151;28;20032;-75
2021/01/10 05:41:57;;;;;;;13.32;4.00;;;-0.90;99.90;;;;;;5056253;28;20033;-75
2021/01/10 05:44:27;;;;;;;10.23;4.70;;;-1.00;99.90;;;;;;5056097;28;20048;-75
2021/01/10 05:47:07;;;;;;;12.35;4.00;;;-0.90;99.90;;;;;;5070058;28;20025;-75
2021/01/10 05:49:33;;;;;;;11.40;4.32;;;-1.00;99.90;;;;;;5075772;28;20043;-75
2021/01/10 05:52:10;;;;;;;8.48;3.60;;;-1.00;99.90;;;;;;5075657;28;20500;-74
2021/01/10 05:54:39;;;;;;;11.68;3.85;;;-1.00;99.90;;;;;;5057756;28;20021;-74
2021/01/10 05:57:10;;;;;;;8.50;4.18;;;-1.00;99.90;;;;;;5040352;28;20108;-74
2021/01/10 05:59:49;;;;;;;11.18;3.78;;;-1.00;99.90;;;;;;5055909;28;20029;-74
2021/01/10 06:02:27;;;;;;;9.50;4.03;;;-1.10;99.90;;;;;;5055687;28;20032;-74
2021/01/10 06:05:13;;;;;;;10.50;4.03;;;-1.10;99.90;;;;;;5037532;28;20059;-75
2021/01/10 06:07:40;;;;;;;9.65;4.53;;;-1.10;99.90;;;;;;5075537;28;20043;-75
2021/01/10 06:10:07;;;;;;;11.20;4.22;;;-1.10;99.90;;;;;;5057026;28;20395;-74
2021/01/10 06:12:33;;;;;;;7.50;3.80;;;-1.00;99.90;;;;;;5057572;28;20020;-74
2021/01/10 06:15:13;;;;;;;11.40;4.50;;;-1.00;99.90;;;;;;5055822;28;20116;-74
2021/01/10 06:17:47;;;;;;;10.60;4.25;;;-1.00;99.90;;;;;;5053428;28;20029;-75
2021/01/10 06:20:34;;;;;;;10.23;4.25;;;-1.00;99.90;;;;;;5058520;28;20141;-75
2021/01/10 06:23:01;;;;;;;11.15;4.43;;;-0.90;99.90;;;;;;5057183;28;20021;-74
2021/01/10 06:25:31;;;;;;;12.55;4.55;;;-0.90;99.90;;;;;;5072847;28;20036;-74
2021/01/10 06:28:07;;;;;;;11.63;4.40;;;-0.80;99.90;;;;;;5056572;28;20449;-74
2021/01/10 06:30:35;;;;;;;13.25;4.93;;;-0.80;99.90;;;;;;5074854;28;20494;-74
2021/01/10 06:33:06;;;;;;;12.73;4.13;;;-0.80;99.90;;;;;;5054862;28;20030;-74
2021/01/10 06:35:38;;;;;;;8.73;3.70;;;-0.80;99.90;;;;;;5038747;28;20017;-74
2021/01/10 06:38:05;;;;;;;13.98;4.30;;;-0.80;99.90;;;;;;5075291;28;20029;-74
2021/01/10 06:40:33;;;;;;;27.70;5.85;;;-0.80;99.90;;;;;;5074960;28;20070;-74
2021/01/10 06:43:02;;;;;;;9.75;4.00;;;-0.80;99.90;;;;;;5074868;28;20013;-74
2021/01/10 06:45:39;;;;;;;10.23;3.78;;;-0.80;99.90;;;;;;5055591;28;20024;-74
2021/01/10 06:48:06;;;;;;;8.60;3.50;;;-0.80;99.90;;;;;;5037002;28;20112;-74
2021/01/10 06:50:32;;;;;;;8.77;4.00;;;-0.70;99.90;;;;;;5054618;28;20031;-74
2021/01/10 06:53:08;;;;;;;8.55;3.38;;;-0.70;99.90;;;;;;5036881;28;20044;-74
2021/01/10 06:55:36;;;;;;;10.55;3.95;;;-0.70;99.90;;;;;;5057516;28;20017;-74
2021/01/10 06:58:08;;;;;;;12.63;3.78;;;-0.70;99.90;;;;;;5074548;28;20012;-74
2021/01/10 07:00:56;;;;;;;8.25;3.15;;;-0.70;99.90;;;;;;5073776;28;20477;-74
2021/01/10 07:03:23;;;;;;;9.98;3.97;;;-0.70;99.90;;;;;;5038569;28;20485;-74
2021/01/10 07:06:01;;;;;;;10.43;4.22;;;-0.70;99.90;;;;;;5057947;28;20385;-74
2021/01/10 07:08:53;;;;;;;12.57;4.50;;;-0.70;99.90;;;;;;5074210;28;20047;-74
2021/01/10 07:11:22;;;;;;;14.60;4.25;;;-0.70;99.90;;;;;;5069813;28;20036;-75
2021/01/10 07:13:52;;;;;;;10.30;4.28;;;-0.60;99.90;;;;;;5074572;28;20032;-74
2021/01/10 07:16:25;;;;;;;13.32;4.65;;;-0.60;99.90;;;;;;5044305;28;20025;-74
2021/01/10 07:18:55;;;;;;;13.68;4.25;;;-0.50;99.90;;;;;;5036339;28;20370;-74
2021/01/10 07:21:59;;;;;;;10.20;3.50;;;-0.40;99.90;;;;;;5054342;28;20031;-74
2021/01/10 07:24:26;;;;;;;11.60;4.18;;;-0.40;99.90;;;;;;4993624;28;20407;-74
2021/01/10 07:27:03;;;;;;;15.23;4.63;;;-0.40;99.90;;;;;;4976112;28;20038;-74
2021/01/10 07:29:38;;;;;;;12.68;3.97;;;-0.30;99.90;;;;;;5009681;28;20128;-74
2021/01/10 07:32:11;;;;;;;9.50;3.92;;;-0.30;99.90;;;;;;5054406;28;20489;-74
2021/01/10 07:34:57;;;;;;;15.00;4.70;;;-0.20;99.90;;;;;;5055628;28;20034;-74
2021/01/10 07:37:25;;;;;;;10.38;4.38;;;-0.10;99.90;;;;;;5057809;28;20413;-74
2021/01/10 07:39:56;;;;;;;9.55;4.40;;;-0.10;99.90;;;;;;5054352;28;20025;-74
2021/01/10 07:42:32;;;;;;;10.30;3.70;;;0.00;99.90;;;;;;5036220;28;20120;-74
2021/01/10 07:45:20;;;;;;;10.80;4.43;;;0.00;99.90;;;;;;5054308;28;20052;-74
2021/01/10 07:47:47;;;;;;;10.25;4.18;;;0.10;99.90;;;;;;5053751;28;20115;-74
2021/01/10 07:50:16;;;;;;;12.63;4.38;;;0.10;99.90;;;;;;5073206;28;20519;-74
2021/01/10 07:52:42;;;;;;;6.53;3.63;;;0.20;99.90;;;;;;5056056;28;20426;-74
2021/01/10 07:55:19;;;;;;;12.30;4.20;;;0.20;99.90;;;;;;5073863;28;20028;-74
2021/01/10 07:57:51;;;;;;;10.63;3.67;;;0.20;99.90;;;;;;5055852;28;20021;-74
2021/01/10 08:00:27;;;;;;;9.88;3.95;;;0.30;99.90;;;;;;5074365;28;20028;-74
2021/01/10 08:03:01;;;;;;;8.38;3.78;;;0.30;99.90;;;;;;5056140;28;20027;-74
2021/01/10 08:05:33;;;;;;;15.07;4.70;;;0.30;99.90;;;;;;5056524;28;20044;-74
2021/01/10 08:08:02;;;;;;;7.85;3.42;;;0.40;99.90;;;;;;5073930;28;20044;-74
2021/01/10 08:10:42;;;;;;;9.27;4.07;;;0.40;99.90;;;;;;5073892;28;20182;-74
2021/01/10 08:13:26;;;;;;;12.93;4.22;;;0.50;99.90;;;;;;5055806;28;20107;-74
2021/01/10 08:15:55;;;;;;;6.63;3.88;;;0.50;99.90;;;;;;5074096;28;20073;-74
2021/01/10 08:18:22;;;;;;;7.95;4.38;;;0.60;99.90;;;;;;5074361;28;20368;-75
2021/01/10 08:20:52;;;;;;;9.85;4.07;;;0.60;99.90;;;;;;5073590;28;20025;-74
2021/01/10 08:23:18;;;;;;;8.65;3.53;;;0.60;99.90;;;;;;5055675;28;20497;-74
2021/01/10 08:25:44;;;;;;;7.22;4.13;;;0.70;99.90;;;;;;5074111;28;20488;-74
2021/01/10 08:28:11;;;;;;;7.30;3.90;;;0.70;99.90;;;;;;5074224;28;20025;-74
2021/01/10 08:30:37;;;;;;;12.60;4.95;;;0.70;99.90;;;;;;5056002;28;20024;-74
2021/01/10 08:33:03;;;;;;;10.60;4.47;;;0.70;99.90;;;;;;5055816;28;20530;-74
2021/01/10 08:35:29;;;;;;;8.32;3.25;;;0.70;99.90;;;;;;5074546;28;20016;-74
2021/01/10 08:37:54;;;;;;;9.52;3.60;;;0.80;99.90;;;;;;5055365;28;20023;-74
2021/01/10 08:40:20;;;;;;;7.40;3.30;;;0.80;99.90;;;;;;5073582;28;20031;-73
2021/01/10 08:42:45;;;;;;;9.02;3.58;;;0.80;99.90;;;;;;5055127;28;20024;-74
2021/01/10 08:45:19;;;;;;;8.63;4.13;;;0.80;99.90;;;;;;5073122;28;20093;-74
2021/01/10 08:47:45;;;;;;;7.03;3.22;;;0.90;99.90;;;;;;5073330;28;20040;-74
2021/01/10 08:50:13;;;;;;;7.97;3.15;;;0.90;99.90;;;;;;5054969;28;20077;-74
2021/01/10 08:52:58;;;;;;;5.63;3.08;;;0.90;99.90;;;;;;5055246;28;20426;-74
2021/01/10 08:55:41;;;;;;;9.73;3.47;;;1.00;99.90;;;;;;5073304;28;20023;-74
2021/01/10 08:58:08;;;;;;;11.27;3.03;;;1.00;99.90;;;;;;5073057;28;20060;-74
2021/01/10 09:00:35;;;;;;;8.15;3.58;;;1.00;99.90;;;;;;5073499;28;20025;-74
2021/01/10 09:03:18;;;;;;;10.27;3.53;;;1.10;99.90;;;;;;5077195;28;20056;-74
2021/01/10 09:05:45;;;;;;;10.90;3.47;;;1.10;99.90;;;;;;5076756;28;20050;-74
2021/01/10 09:08:26;;;;;;;7.53;3.58;;;1.10;99.90;;;;;;5052798;28;20017;-74
2021/01/10 09:11:09;;;;;;;10.18;3.67;;;1.20;99.90;;;;;;5056876;28;20025;-74
2021/01/10 09:13:39;;;;;;;9.82;3.17;;;1.20;99.90;;;;;;5056498;28;20051;-74
2021/01/10 09:16:07;;;;;;;6.35;3.17;;;1.20;99.90;;;;;;5056979;28;20086;-74
2021/01/10 09:18:37;;;;;;;8.25;3.08;;;1.20;99.90;;;;;;5064761;28;20016;-75
2021/01/10 09:21:11;;;;;;;9.82;3.42;;;1.20;99.90;;;;;;5076284;28;20089;-74
2021/01/10 09:23:37;;;;;;;10.02;3.25;;;1.30;99.90;;;;;;5075850;28;20027;-74
2021/01/10 09:26:03;;;;;;;6.90;3.72;;;1.30;99.90;;;;;;5056860;28;20386;-74
2021/01/10 09:28:33;;;;;;;10.15;3.47;;;1.40;99.90;;;;;;5056368;28;20013;-74
2021/01/10 09:30:58;;;;;;;8.13;3.08;;;1.50;99.90;;;;;;5065819;28;20017;-74
2021/01/10 09:33:29;;;;;;;5.35;3.35;;;1.50;99.90;;;;;;5075881;28;20024;-75
2021/01/10 09:35:57;;;;;;;9.30;3.10;;;1.60;99.90;;;;;;5076210;28;20028;-74
2021/01/10 09:38:31;;;;;;;12.35;4.15;;;1.60;99.90;;;;;;5058111;28;20013;-74
2021/01/10 09:41:03;;;;;;;10.50;3.40;;;1.60;99.90;;;;;;5075413;28;20027;-74
2021/01/10 09:43:47;;;;;;;9.98;3.15;;;1.70;99.90;;;;;;5042697;28;20121;-74
2021/01/10 09:46:27;;;;;;;8.13;3.25;;;1.80;99.90;;;;;;5056628;28;20039;-74
2021/01/10 09:49:19;;;;;;;8.35;2.10;;;1.80;99.90;;;;;;5071906;28;20025;-74
2021/01/10 09:52:01;;;;;;;5.00;2.28;;;1.90;99.90;;;;;;5044411;28;20040;-75
2021/01/10 09:54:36;;;;;;;6.68;1.50;;;2.00;99.90;;;;;;5058500;28;20016;-75
2021/01/10 09:57:22;;;;;;;4.10;1.33;;;2.20;99.90;;;;;;5057864;28;20021;-74
2021/01/10 10:00:03;;;;;;;5.40;1.63;;;2.30;99.90;;;;;;5057871;28;20123;-74
2021/01/10 10:02:38;;;;;;;7.32;1.23;;;2.40;99.90;;;;;;5074336;28;20076;-75
2021/01/10 10:05:12;;;;;;;7.32;2.15;;;2.50;99.90;;;;;;5060935;28;20373;-74
2021/01/10 10:07:46;;;;;;;9.00;1.95;;;2.60;99.90;;;;;;5055430;28;20049;-75
2021/01/10 10:10:21;;;;;;;4.25;1.17;;;2.80;99.90;;;;;;5055671;28;20104;-74
2021/01/10 10:13:01;;;;;;;5.20;1.67;;;2.90;99.90;;;;;;5037146;28;20028;-75
2021/01/10 10:15:45;;;;;;;4.90;1.33;;;3.00;99.90;;;;;;5055301;28;20025;-74
2021/01/10 10:18:27;;;;;;;4.40;1.10;;;3.10;99.90;;;;;;5055101;28;20473;-74
2021/01/10 10:20:53;;;;;;;5.57;1.02;;;3.10;99.90;;;;;;5038143;28;20032;-75
2021/01/10 10:23:19;;;;;;;3.13;0.95;;;3.10;99.90;;;;;;5055344;28;20025;-74
2021/01/10 10:25:51;;;;;;;4.10;0.82;;;3.20;99.90;;;;;;5037097;28;20027;-74
2021/01/10 10:28:18;;;;;;;4.22;0.60;;;3.40;99.90;;;;;;5055312;28;20013;-74
2021/01/10 10:30:46;;;;;;;2.13;0.80;;;3.50;99.90;;;;;;5036886;28;20538;-75
2021/01/10 10:33:12;;;;;;;5.25;0.50;;;3.60;99.90;;;;;;5036885;28;20009;-75
2021/01/10 10:35:38;;;;;;;1.63;0.60;;;3.70;99.90;;;;;;5054634;28;20036;-75
2021/01/10 10:38:04;;;;;;;3.38;0.47;;;3.80;99.90;;;;;;5054514;28;20104;-75
2021/01/10 10:40:30;;;;;;;4.78;1.05;;;3.80;99.90;;;;;;5036980;28;20029;-75
2021/01/10 10:42:56;;;;;;;2.13;0.60;;;3.90;99.90;;;;;;5054832;28;20025;-75
2021/01/10 10:45:22;;;;;;;6.20;1.30;;;4.00;99.90;;;;;;5054612;28;20017;-75
2021/01/10 10:47:47;;;;;;;1.67;0.50;;;4.10;99.90;;;;;;5054319;28;20033;-75
2021/01/10 10:50:13;;;;;;;6.05;1.10;;;4.20;99.90;;;;;;5065694;22;20037;-75
2021/01/10 10:52:41;;;;;;;4.63;1.00;;;4.20;99.90;;;;;;5056697;28;20401;-75
2021/01/10 10:55:07;;;;;;;6.50;0.90;;;4.20;99.90;;;;;;5055605;28;20019;-75
2021/01/10 10:57:32;;;;;;;2.92;0.32;;;4.30;99.90;;;;;;5055014;28;20107;-75
2021/01/10 10:59:58;;;;;;;1.92;0.55;;;4.40;99.90;;;;;;5060257;28;20498;-75
2021/01/10 11:02:26;;;;;;;1.23;0.40;;;4.50;99.90;;;;;;5074141;28;20431;-74
2021/01/10 11:04:52;;;;;;;3.40;0.32;;;4.70;99.90;;;;;;5074055;28;20024;-75
2021/01/10 11:07:17;;;;;;;3.47;0.68;;;4.60;99.90;;;;;;5056078;28;20423;-75
2021/01/10 11:09:45;;;;;;;5.20;0.80;;;4.60;99.90;;;;;;5038211;28;20029;-75
2021/01/10 11:12:12;;;;;;;6.53;0.90;;;4.60;99.90;;;;;;5053952;28;20021;-75
2021/01/10 11:14:38;;;;;;;1.73;0.90;;;4.60;99.90;;;;;;5054195;28;20024;-75
2021/01/10 11:17:08;;;;;;;2.05;0.32;;;4.50;99.90;;;;;;5054476;28;20023;-76
2021/01/10 11:19:33;;;;;;;3.17;0.60;;;4.60;99.90;;;;;;5074207;28;20103;-77
2021/01/10 11:22:07;;;;;;;2.00;1.02;;;4.60;99.90;;;;;;5074499;28;20056;-77
2021/01/10 11:24:34;;;;;;;3.00;0.88;;;4.50;99.90;;;;;;5055509;28;20038;-76
2021/01/10 11:27:00;;;;;;;3.45;0.70;;;4.70;99.90;;;;;;5073867;28;20082;-76
2021/01/10 11:29:26;;;;;;;4.47;0.50;;;4.70;99.90;;;;;;5055762;28;20499;-76
2021/01/10 11:31:55;;;;;;;2.05;0.70;;;4.80;99.90;;;;;;5073887;28;20031;-78
2021/01/10 11:34:22;;;;;;;7.22;0.63;;;4.90;99.90;;;;;;5066841;28;20520;-78
2021/01/10 11:36:51;;;;;;;2.60;0.55;;;5.00;99.90;;;;;;5036538;28;20025;-75
2021/01/10 11:39:17;;;;;;;;;;;5.00;99.90;;;;;;5061824;28;20088;-74
2021/01/10 11:41:48;;;;;;;3.08;0.25;;;5.10;99.90;;;;;;5036611;28;19908;-75
2021/01/10 11:44:14;;;;;;;7.40;0.75;;;5.10;99.90;;;;;;5054777;28;20040;-75
2021/01/10 11:46:41;;;;;;;3.55;0.40;;;5.10;99.90;;;;;;5053849;28;20037;-74
2021/01/10 11:49:07;;;;;;;3.03;0.68;;;5.30;99.90;;;;;;5039803;28;20473;-74
2021/01/10 11:51:33;;;;;;;3.40;1.15;;;5.30;99.90;;;;;;5055781;28;20071;-75
2021/01/10 11:53:59;;;;;;;1.48;0.50;;;5.30;99.90;;;;;;5056567;28;20385;-75
2021/01/10 11:56:24;;;;;;;3.28;0.70;;;5.30;99.90;;;;;;5045741;28;20014;-75
2021/01/10 11:58:50;;;;;;;4.90;0.70;;;5.40;99.90;;;;;;5036696;28;20029;-75
2021/01/10 12:01:15;;;;;;;2.78;1.05;;;5.30;99.90;;;;;;5060319;28;20029;-75
2021/01/10 12:03:43;;;;;;;6.00;2.28;;;5.40;99.90;;;;;;5036137;28;20065;-75
2021/01/10 12:06:08;;;;;;;4.63;1.42;;;5.50;99.90;;;;;;5054481;28;20565;-75
2021/01/10 12:08:34;;;;;;;3.35;0.73;;;5.50;99.90;;;;;;5036306;28;20057;-75
2021/01/10 12:11:00;;;;;;;5.60;1.08;;;5.50;99.90;;;;;;5036668;28;20025;-75
2021/01/10 12:13:25;;;;;;;5.10;1.40;;;5.50;99.90;;;;;;5035932;28;20022;-75
2021/01/10 12:15:51;;;;;;;2.28;0.80;;;5.40;99.90;;;;;;5044334;28;20021;-75
2021/01/10 12:18:17;;;;;;;2.20;0.60;;;5.50;99.90;;;;;;5056025;28;20017;-74
2021/01/10 12:20:43;;;;;;;2.63;1.00;;;5.50;99.90;;;;;;5054839;28;20024;-74
2021/01/10 12:23:09;;;;;;;3.20;0.73;;;5.40;99.90;;;;;;5041318;28;20028;-74
2021/01/10 12:25:35;;;;;;;4.63;1.20;;;5.50;99.90;;;;;;5054212;28;20025;-74
2021/01/10 12:28:00;;;;;;;4.72;0.80;;;5.60;99.90;;;;;;5065749;28;20033;-74
2021/01/10 12:33:48;;;;;;;3.72;0.98;;;5.60;99.90;;;;;;5054115;28;20027;-75
2021/01/10 12:36:15;;;;;;;3.30;1.67;;;5.50;99.90;;;;;;5057177;28;20465;-75
2021/01/10 12:38:42;;;;;;;3.83;1.15;;;5.50;99.90;;;;;;5058163;28;20100;-73
2021/01/10 12:41:08;;;;;;;5.93;1.23;;;5.50;99.90;;;;;;5039733;28;20025;-78
2021/01/10 12:43:34;;;;;;;3.25;0.98;;;5.50;99.90;;;;;;5040205;28;20020;-78
2021/01/10 12:46:00;;;;;;;3.85;1.05;;;5.50;99.90;;;;;;5039229;28;20585;-77
2021/01/10 12:48:25;;;;;;;3.92;0.93;;;5.50;99.90;;;;;;5039004;28;20362;-78
2021/01/10 12:50:51;;;;;;;4.43;1.00;;;5.60;99.90;;;;;;5056648;28;20037;-78
2021/01/10 12:53:17;;;;;;;3.28;1.05;;;5.60;99.90;;;;;;5056889;28;20021;-77
2021/01/10 12:55:45;;;;;;;3.97;1.20;;;5.60;99.90;;;;;;5056903;28;20021;-77
2021/01/10 12:58:12;;;;;;;5.65;1.75;;;5.70;99.90;;;;;;5056954;28;20020;-77
2021/01/10 13:00:41;;;;;;;11.00;1.50;;;5.80;99.90;;;;;;5038672;28;20481;-77